Time;durP1;ratioP1;P1;durP2;ratioP2;P2;SDS_P1;SDS_P2;PMS_P1;PMS_P2;Temp;Humidity;BMP_temperature;BMP_pressure;BME280_temperature;BME280_humidity;BME280_pressure;Samples;Min_cycle;Max_cycle;Signal;HPM_P1;HPM_P2
2023/12/02 00:01:59;;;;;;;34.47;16.42;;;0.00;99.90;;;;;;5023464;28;20026;-92
2023/12/02 00:04:25;;;;;;;39.28;19.30;;;0.00;99.90;;;;;;5033794;28;20066;-93
2023/12/02 00:06:53;;;;;;;38.35;19.38;;;-0.10;99.90;;;;;;5028296;28;20097;-94
2023/12/02 00:09:19;;;;;;;;;;;-0.10;99.90;;;;;;5019868;28;20030;-91
2023/12/02 00:11:49;;;;;;;32.50;16.85;;;-0.10;99.90;;;;;;5022268;28;20437;-94
2023/12/02 00:14:14;;;;;;;33.80;16.73;;;0.00;99.90;;;;;;5034851;28;20033;-92
2023/12/02 00:16:40;;;;;;;39.03;20.17;;;0.00;99.90;;;;;;5040641;28;20560;-93
2023/12/02 00:19:06;;;;;;;32.40;16.85;;;0.00;99.90;;;;;;5037906;28;20116;-92
2023/12/02 00:21:31;;;;;;;35.50;17.40;;;-0.10;99.90;;;;;;5020860;28;20080;-92
2023/12/02 00:23:57;;;;;;;36.53;19.27;;;-0.10;99.90;;;;;;5031660;28;20041;-93
2023/12/02 00:26:23;;;;;;;35.63;18.20;;;-0.10;99.90;;;;;;5043000;28;20424;-92
2023/12/02 00:28:48;;;;;;;36.85;18.27;;;-0.10;99.90;;;;;;5025918;28;20539;-93
2023/12/02 00:31:14;;;;;;;36.40;18.05;;;-0.10;99.90;;;;;;5036125;28;20044;-92
2023/12/02 00:33:40;;;;;;;37.13;19.63;;;-0.10;99.90;;;;;;5040304;28;20029;-92
2023/12/02 00:36:06;;;;;;;34.47;16.67;;;-0.20;99.90;;;;;;5033142;28;20052;-92
2023/12/02 00:38:31;;;;;;;38.05;19.65;;;-0.20;99.90;;;;;;5032973;28;20693;-93
2023/12/02 00:41:00;;;;;;;33.50;17.70;;;-0.20;99.90;;;;;;5003587;28;20030;-91
2023/12/02 00:43:25;;;;;;;34.83;17.48;;;-0.20;99.90;;;;;;5004876;28;20046;-91
2023/12/02 00:45:51;;;;;;;36.58;19.35;;;-0.20;99.90;;;;;;5020485;28;20033;-92
2023/12/02 00:48:17;;;;;;;31.63;16.52;;;-0.20;99.90;;;;;;5022029;28;20089;-92
2023/12/02 00:50:42;;;;;;;35.30;17.23;;;-0.20;99.90;;;;;;5029739;28;20082;-93
2023/12/02 00:53:11;;;;;;;39.15;17.48;;;-0.30;99.90;;;;;;5036190;28;20029;-93
2023/12/02 00:55:37;;;;;;;38.40;19.05;;;-0.30;99.90;;;;;;5040273;28;20029;-93
2023/12/02 00:58:02;;;;;;;31.13;16.48;;;-0.30;99.90;;;;;;5042910;28;20085;-91
2023/12/02 01:00:28;;;;;;;33.55;16.58;;;-0.30;99.90;;;;;;5024396;28;20427;-92
2023/12/02 01:02:53;;;;;;;35.35;16.75;;;-0.30;99.90;;;;;;5019124;28;20105;-91
2023/12/02 01:05:19;;;;;;;34.13;16.77;;;-0.30;99.90;;;;;;5027180;28;20033;-93
2023/12/02 01:07:45;;;;;;;28.67;17.15;;;-0.30;99.90;;;;;;5019500;28;20026;-93
2023/12/02 01:10:14;;;;;;;32.42;16.92;;;-0.30;99.90;;;;;;5041025;28;20650;-93
2023/12/02 01:12:40;;;;;;;35.40;17.35;;;-0.30;99.90;;;;;;5043062;28;20027;-93
2023/12/02 01:15:06;;;;;;;30.80;14.40;;;-0.30;99.90;;;;;;5043048;28;20053;-92
2023/12/02 01:17:32;;;;;;;32.42;16.63;;;-0.30;99.90;;;;;;5009809;28;20030;-93
2023/12/02 01:19:57;;;;;;;33.92;16.40;;;-0.30;99.90;;;;;;5026937;28;20026;-93
2023/12/02 01:22:23;;;;;;;31.25;17.95;;;-0.30;99.90;;;;;;5033962;28;20026;-91
2023/12/02 01:24:49;;;;;;;34.60;17.15;;;-0.40;99.90;;;;;;5036005;28;20017;-92
2023/12/02 01:27:14;;;;;;;33.10;16.02;;;-0.40;99.90;;;;;;5031684;28;20029;-94
2023/12/02 01:29:40;;;;;;;34.42;17.20;;;-0.30;99.90;;;;;;5024061;28;20022;-92
2023/12/02 01:32:09;;;;;;;39.40;18.48;;;-0.30;99.90;;;;;;5023858;28;20022;-93
2023/12/02 01:34:34;;;;;;;33.53;14.55;;;-0.30;99.90;;;;;;5023096;28;20104;-93
2023/12/02 01:37:00;;;;;;;41.03;18.15;;;-0.30;99.90;;;;;;5024225;28;20060;-92
2023/12/02 01:39:26;;;;;;;31.75;17.95;;;-0.40;99.90;;;;;;5034537;28;20026;-92
2023/12/02 01:41:52;;;;;;;33.90;17.05;;;-0.40;99.90;;;;;;5031636;28;20029;-92
2023/12/02 01:44:18;;;;;;;32.15;15.80;;;-0.40;99.90;;;;;;5037072;28;20056;-92
2023/12/02 01:46:43;;;;;;;31.42;16.58;;;-0.40;99.90;;;;;;5023107;28;20049;-92
2023/12/02 01:49:10;;;;;;;27.27;15.88;;;-0.50;99.90;;;;;;5023072;28;20026;-92
2023/12/02 01:51:36;;;;;;;32.55;15.32;;;-0.50;99.90;;;;;;5038368;28;20028;-92
2023/12/02 01:54:03;;;;;;;30.23;15.93;;;-0.50;99.90;;;;;;5042787;28;20026;-92
2023/12/02 01:56:28;;;;;;;30.13;15.15;;;-0.50;99.90;;;;;;5042783;28;20088;-92
2023/12/02 01:58:54;;;;;;;32.78;15.75;;;-0.50;99.90;;;;;;5031262;28;20305;-92
2023/12/02 02:01:20;;;;;;;28.48;15.57;;;-0.50;99.90;;;;;;5036080;28;20025;-93
2023/12/02 02:03:51;;;;;;;35.22;16.13;;;-0.40;99.90;;;;;;5041929;28;20553;-94
2023/12/02 02:06:17;;;;;;;29.83;15.48;;;-0.40;99.90;;;;;;5026849;28;20029;-92
2023/12/02 02:08:43;;;;;;;34.28;17.17;;;-0.40;99.90;;;;;;5029609;28;20032;-92
2023/12/02 02:11:11;;;;;;;34.70;17.88;;;-0.50;99.90;;;;;;5034101;28;20076;-92
2023/12/02 02:13:37;;;;;;;;;;;-0.50;99.90;;;;;;5025100;28;20056;-93
2023/12/02 02:16:03;;;;;;;31.70;17.17;;;-0.50;99.90;;;;;;5033808;28;19905;-92
2023/12/02 02:18:29;;;;;;;34.53;16.33;;;-0.50;99.90;;;;;;5024116;28;20037;-92
2023/12/02 02:20:55;;;;;;;28.65;14.35;;;-0.60;99.90;;;;;;5020485;28;20129;-92
2023/12/02 02:23:22;;;;;;;42.85;16.48;;;-0.50;99.90;;;;;;5008930;28;20065;-91
2023/12/02 02:25:52;;;;;;;31.90;17.70;;;-0.60;99.90;;;;;;5022305;28;20104;-92
2023/12/02 02:28:23;;;;;;;32.28;16.27;;;-0.60;99.90;;;;;;5014246;28;20032;-93
2023/12/02 02:30:49;;;;;;;32.53;16.80;;;-0.60;99.90;;;;;;5041507;28;20107;-92
2023/12/02 02:33:15;;;;;;;30.90;17.00;;;-0.60;99.90;;;;;;5025586;28;20037;-94
2023/12/02 02:35:41;;;;;;;29.25;16.35;;;-0.60;99.90;;;;;;5043822;28;20048;-92
2023/12/02 02:38:07;;;;;;;31.45;16.23;;;-0.60;99.90;;;;;;5032167;28;20034;-91
2023/12/02 02:40:32;;;;;;;30.85;16.83;;;-0.60;99.90;;;;;;5042789;28;20053;-94
2023/12/02 02:42:58;;;;;;;29.58;15.60;;;-0.70;99.90;;;;;;5042797;28;20071;-92
2023/12/02 02:45:26;;;;;;;35.60;15.95;;;-0.70;99.90;;;;;;5036376;28;20057;-93
2023/12/02 02:47:52;;;;;;;31.15;15.85;;;-0.70;99.90;;;;;;5040436;28;20021;-93
2023/12/02 02:50:18;;;;;;;29.80;15.73;;;-0.70;99.90;;;;;;5042536;28;20025;-94
2023/12/02 02:52:44;;;;;;;30.55;15.23;;;-0.70;99.90;;;;;;5040302;28;20104;-91
2023/12/02 02:55:10;;;;;;;26.70;15.10;;;-0.80;99.90;;;;;;5030710;28;20489;-91
2023/12/02 02:57:35;;;;;;;25.90;14.32;;;-0.90;99.90;;;;;;5034890;28;20088;-93
2023/12/02 03:00:04;;;;;;;29.95;15.07;;;-0.80;99.90;;;;;;5036543;28;20029;-93
2023/12/02 03:02:30;;;;;;;33.33;18.85;;;-0.90;99.90;;;;;;5028426;28;20029;-93
2023/12/02 03:04:59;;;;;;;29.73;13.82;;;-0.90;99.90;;;;;;5022956;28;20034;-92
2023/12/02 03:07:24;;;;;;;30.17;15.50;;;-0.90;99.90;;;;;;5032399;28;20074;-94
2023/12/02 03:09:50;;;;;;;33.83;15.75;;;-0.90;99.90;;;;;;5044298;28;20025;-93
2023/12/02 03:12:16;;;;;;;29.83;15.30;;;-0.90;99.90;;;;;;5025998;28;20041;-92
2023/12/02 03:14:42;;;;;;;29.67;13.75;;;-0.90;99.90;;;;;;5023514;28;20014;-93
2023/12/02 03:17:11;;;;;;;31.13;16.50;;;-0.90;99.90;;;;;;5023637;28;20049;-92
2023/12/02 03:19:36;;;;;;;26.38;14.50;;;-0.90;99.90;;;;;;5028826;28;20030;-90
2023/12/02 03:22:03;;;;;;;26.75;15.98;;;-0.90;99.90;;;;;;5016648;28;20025;-90
2023/12/02 03:24:28;;;;;;;32.75;17.10;;;-0.90;99.90;;;;;;5034411;28;20052;-91
2023/12/02 03:26:54;;;;;;;27.67;14.35;;;-0.90;99.90;;;;;;5033889;28;20037;-93
2023/12/02 03:29:23;;;;;;;29.75;15.30;;;-0.90;99.90;;;;;;5035343;28;20035;-92
2023/12/02 03:31:48;;;;;;;25.00;13.43;;;-0.90;99.90;;;;;;5041734;28;20025;-91
2023/12/02 03:34:14;;;;;;;29.42;14.77;;;-0.90;99.90;;;;;;5034463;28;20033;-91
2023/12/02 03:36:39;;;;;;;30.40;15.63;;;-1.00;99.90;;;;;;5032301;28;20032;-92
2023/12/02 03:39:05;;;;;;;26.55;14.05;;;-1.10;99.90;;;;;;5034728;28;20322;-93
2023/12/02 03:41:31;;;;;;;26.90;14.25;;;-1.10;99.90;;;;;;5043522;28;20025;-93
2023/12/02 03:43:57;;;;;;;25.83;13.98;;;-1.10;99.90;;;;;;5037303;28;20029;-93
2023/12/02 03:46:22;;;;;;;25.25;13.98;;;-1.00;99.90;;;;;;5023807;28;20321;-92
2023/12/02 03:48:48;;;;;;;24.95;13.60;;;-1.00;99.90;;;;;;5040937;28;20029;-93
2023/12/02 03:51:13;;;;;;;26.80;13.43;;;-1.00;99.90;;;;;;5037998;28;20033;-94
2023/12/02 03:53:39;;;;;;;28.73;13.73;;;-1.00;99.90;;;;;;5030808;28;20029;-93
2023/12/02 03:56:06;;;;;;;28.88;12.90;;;-1.00;99.90;;;;;;5034756;28;20029;-93
2023/12/02 03:58:32;;;;;;;27.92;13.88;;;-1.00;99.90;;;;;;5024721;28;20025;-93
2023/12/02 04:00:58;;;;;;;26.10;12.95;;;-1.00;99.90;;;;;;5037754;28;20076;-94
2023/12/02 04:03:23;;;;;;;25.55;12.13;;;-1.10;99.90;;;;;;5011413;28;20032;-92
2023/12/02 04:05:50;;;;;;;24.15;12.93;;;-1.00;99.90;;;;;;5016562;28;20032;-93
2023/12/02 04:08:16;;;;;;;27.13;12.95;;;-1.00;99.90;;;;;;5029393;28;20032;-93
2023/12/02 04:10:42;;;;;;;24.17;14.07;;;-1.10;99.90;;;;;;5039919;28;20084;-94
2023/12/02 04:13:07;;;;;;;23.92;13.15;;;-1.10;99.90;;;;;;5021861;28;20022;-92
2023/12/02 04:15:33;;;;;;;21.05;12.95;;;-1.10;99.90;;;;;;5024962;28;20021;-92
2023/12/02 04:17:59;;;;;;;23.30;13.05;;;-1.10;99.90;;;;;;5033436;28;20041;-95
2023/12/02 04:20:25;;;;;;;18.15;10.20;;;-1.10;99.90;;;;;;5027372;28;20022;-94
2023/12/02 04:22:51;;;;;;;21.40;11.35;;;-1.20;99.90;;;;;;5023391;28;20077;-94
2023/12/02 04:25:16;;;;;;;20.58;12.18;;;-1.20;99.90;;;;;;5011107;28;20595;-92
2023/12/02 04:27:42;;;;;;;19.33;11.15;;;-1.20;99.90;;;;;;5034587;28;20029;-91
2023/12/02 04:30:11;;;;;;;18.00;10.02;;;-1.20;99.90;;;;;;5019224;28;20032;-91
2023/12/02 04:32:37;;;;;;;21.42;10.07;;;-1.20;99.90;;;;;;5006667;28;20026;-93
2023/12/02 04:35:05;;;;;;;17.55;10.35;;;-1.10;99.90;;;;;;5024307;28;20032;-91
2023/12/02 04:37:31;;;;;;;16.80;11.38;;;-1.10;99.90;;;;;;5034632;28;20032;-93
2023/12/02 04:39:56;;;;;;;16.23;9.48;;;-1.20;99.90;;;;;;5026142;28;20030;-94
2023/12/02 04:42:22;;;;;;;18.13;9.32;;;-1.20;99.90;;;;;;5033400;28;20041;-94
2023/12/02 04:44:50;;;;;;;15.68;9.38;;;-1.20;99.90;;;;;;5043261;28;20075;-92
2023/12/02 04:47:16;;;;;;;15.85;8.75;;;-1.20;99.90;;;;;;5031921;28;20030;-92
2023/12/02 04:49:42;;;;;;;16.75;9.95;;;-1.20;99.90;;;;;;5016692;28;20063;-94
2023/12/02 04:52:08;;;;;;;16.10;8.10;;;-1.30;99.90;;;;;;5030928;28;20042;-92
2023/12/02 04:54:34;;;;;;;16.60;8.60;;;-1.20;99.90;;;;;;5034704;28;20061;-93
2023/12/02 04:57:00;;;;;;;10.70;5.90;;;-1.20;99.90;;;;;;5017681;28;20021;-92
2023/12/02 04:59:26;;;;;;;15.60;8.50;;;-1.30;99.90;;;;;;5025489;28;20057;-92
2023/12/02 05:01:52;;;;;;;13.27;7.82;;;-1.20;99.90;;;;;;5028524;28;20029;-94
2023/12/02 05:04:18;;;;;;;14.98;8.65;;;-1.30;99.90;;;;;;5046559;28;20045;-93
2023/12/02 05:06:44;;;;;;;16.88;9.73;;;-1.30;99.90;;;;;;5046596;28;20048;-92
2023/12/02 05:09:10;;;;;;;14.80;9.65;;;-1.30;99.90;;;;;;5033077;28;20030;-94
2023/12/02 05:11:35;;;;;;;16.02;8.10;;;-1.30;99.90;;;;;;5035111;28;20052;-91
2023/12/02 05:14:13;;;;;;;15.13;8.55;;;-1.30;99.90;;;;;;5042978;28;20037;-93
2023/12/02 05:16:44;;;;;;;12.93;7.65;;;-1.30;99.90;;;;;;5034641;28;20060;-91
2023/12/02 05:19:10;;;;;;;12.13;9.43;;;-1.30;99.90;;;;;;5042591;28;20021;-93
2023/12/02 05:21:37;;;;;;;16.40;9.93;;;-1.30;99.90;;;;;;5042871;28;20095;-91
2023/12/02 05:24:03;;;;;;;14.48;7.80;;;-1.30;99.90;;;;;;5025867;28;20022;-91
2023/12/02 05:26:29;;;;;;;14.95;8.40;;;-1.40;99.90;;;;;;5031779;28;20065;-91
2023/12/02 05:28:54;;;;;;;12.48;8.90;;;-1.40;99.90;;;;;;5043285;28;20056;-92
2023/12/02 05:31:21;;;;;;;15.27;9.80;;;-1.40;99.90;;;;;;5021549;28;20029;-93
2023/12/02 05:33:47;;;;;;;14.73;8.18;;;-1.40;99.90;;;;;;5027635;28;20033;-92
2023/12/02 05:36:13;;;;;;;14.63;9.13;;;-1.40;99.90;;;;;;5034702;28;20030;-93
2023/12/02 05:38:38;;;;;;;14.32;9.07;;;-1.40;99.90;;;;;;5015366;28;20483;-93
2023/12/02 05:41:05;;;;;;;14.70;8.60;;;-1.40;99.90;;;;;;5028217;28;20356;-94
2023/12/02 05:43:31;;;;;;;17.58;9.75;;;-1.40;99.90;;;;;;5025848;28;20070;-94
2023/12/02 05:45:56;;;;;;;14.77;10.18;;;-1.40;99.90;;;;;;5044162;28;20026;-93
2023/12/02 05:48:22;;;;;;;16.85;11.68;;;-1.40;99.90;;;;;;5042990;28;20029;-90
2023/12/02 05:50:48;;;;;;;14.52;7.93;;;-1.40;99.90;;;;;;5033224;28;20030;-93
2023/12/02 05:53:14;;;;;;;15.48;9.63;;;-1.50;99.90;;;;;;5023632;28;20041;-93
2023/12/02 05:55:39;;;;;;;12.88;8.70;;;-1.40;99.90;;;;;;5031681;28;20026;-95
2023/12/02 05:58:05;;;;;;;14.57;9.32;;;-1.40;99.90;;;;;;5041032;28;20035;-93
2023/12/02 06:00:32;;;;;;;13.93;10.52;;;-1.40;99.90;;;;;;5036273;28;20160;-92
2023/12/02 06:02:57;;;;;;;14.45;8.57;;;-1.40;99.90;;;;;;5031303;28;20027;-93
2023/12/02 06:05:23;;;;;;;15.02;8.95;;;-1.40;99.90;;;;;;5046408;28;20081;-93
2023/12/02 06:07:48;;;;;;;15.88;9.32;;;-1.40;99.90;;;;;;5018008;28;20033;-92
2023/12/02 06:10:14;;;;;;;14.60;9.85;;;-1.40;99.90;;;;;;5006142;28;20032;-91
2023/12/02 06:12:40;;;;;;;14.70;8.32;;;-1.40;99.90;;;;;;5024286;28;20032;-92
2023/12/02 06:15:06;;;;;;;16.70;9.65;;;-1.40;99.90;;;;;;5040268;28;20032;-94
2023/12/02 06:17:35;;;;;;;14.00;9.27;;;-1.50;99.90;;;;;;5039049;28;20025;-92
2023/12/02 06:20:01;;;;;;;13.82;8.55;;;-1.40;99.90;;;;;;5026012;28;20048;-93
2023/12/02 06:22:26;;;;;;;13.32;8.30;;;-1.40;99.90;;;;;;5041265;28;20026;-93
2023/12/02 06:24:52;;;;;;;14.25;8.80;;;-1.50;99.90;;;;;;5035058;28;20087;-95
2023/12/02 06:27:17;;;;;;;14.13;9.05;;;-1.40;99.90;;;;;;5030789;28;20370;-91
2023/12/02 06:29:43;;;;;;;13.02;9.32;;;-1.40;99.90;;;;;;5034129;28;20040;-94
2023/12/02 06:32:09;;;;;;;13.32;9.07;;;-1.50;99.90;;;;;;5042679;28;20022;-91
2023/12/02 06:34:34;;;;;;;16.90;9.50;;;-1.40;99.90;;;;;;5043682;28;20034;-94
2023/12/02 06:37:00;;;;;;;12.25;8.88;;;-1.50;99.90;;;;;;5035890;28;20041;-93
2023/12/02 06:39:25;;;;;;;12.40;8.70;;;-1.40;99.90;;;;;;5012815;28;20226;-92
2023/12/02 06:41:51;;;;;;;12.02;8.25;;;-1.40;99.90;;;;;;5041504;28;20089;-91
2023/12/02 06:44:17;;;;;;;13.05;8.65;;;-1.40;99.90;;;;;;5035643;28;20076;-93
2023/12/02 06:46:43;;;;;;;13.23;7.97;;;-1.40;99.90;;;;;;5038936;28;20539;-91
2023/12/02 06:49:09;;;;;;;14.50;8.77;;;-1.40;99.90;;;;;;5027698;28;20040;-93
2023/12/02 06:51:35;;;;;;;15.82;9.38;;;-1.40;99.90;;;;;;5021637;28;20085;-92
2023/12/02 06:54:03;;;;;;;14.10;8.63;;;-1.50;99.90;;;;;;5025250;28;20108;-92
2023/12/02 06:56:29;;;;;;;14.60;8.70;;;-1.50;99.90;;;;;;5041562;28;20037;-90
2023/12/02 06:58:55;;;;;;;14.63;8.27;;;-1.40;99.90;;;;;;5032769;28;20559;-90
2023/12/02 07:01:27;;;;;;;11.07;8.05;;;-1.40;99.90;;;;;;5041009;28;20368;-94
2023/12/02 07:03:57;;;;;;;11.90;8.80;;;-1.40;99.90;;;;;;5029291;28;20017;-91
2023/12/02 07:06:23;;;;;;;12.00;7.50;;;-1.40;99.90;;;;;;5023832;28;20029;-93
2023/12/02 07:08:50;;;;;;;15.35;9.07;;;-1.40;99.90;;;;;;5022488;28;20029;-92
2023/12/02 07:11:16;;;;;;;14.65;9.75;;;-1.40;99.90;;;;;;5036768;28;20022;-92
2023/12/02 07:13:41;;;;;;;12.30;7.70;;;-1.40;99.90;;;;;;5021991;28;20523;-92
2023/12/02 07:16:07;;;;;;;15.27;9.57;;;-1.40;99.90;;;;;;5023146;28;20076;-93
2023/12/02 07:18:33;;;;;;;16.20;8.98;;;-1.40;99.90;;;;;;5012110;28;20037;-92
2023/12/02 07:21:00;;;;;;;13.73;8.40;;;-1.40;99.90;;;;;;5031984;28;20511;-93
2023/12/02 07:23:26;;;;;;;17.90;9.75;;;-1.40;99.90;;;;;;5032542;28;20030;-93
2023/12/02 07:25:57;;;;;;;12.75;8.48;;;-1.40;99.90;;;;;;5041444;28;20530;-93
2023/12/02 07:28:23;;;;;;;13.05;7.72;;;-1.40;99.90;;;;;;5040055;28;20058;-92
2023/12/02 07:30:49;;;;;;;14.38;8.98;;;-1.40;99.90;;;;;;5040584;28;20029;-93
2023/12/02 07:33:15;;;;;;;11.25;7.28;;;-1.40;99.90;;;;;;5039600;28;20041;-93
2023/12/02 07:35:42;;;;;;;14.15;9.13;;;-1.40;99.90;;;;;;5023876;28;20029;-93
2023/12/02 07:38:08;;;;;;;12.25;8.25;;;-1.30;99.90;;;;;;5019110;28;20053;-93
2023/12/02 07:40:35;;;;;;;13.82;7.75;;;-1.30;99.90;;;;;;5034355;28;20060;-91
2023/12/02 07:43:01;;;;;;;13.93;7.28;;;-1.30;99.90;;;;;;5040966;28;20104;-92
2023/12/02 07:45:27;;;;;;;14.27;9.55;;;-1.40;99.90;;;;;;5040438;28;20028;-93
2023/12/02 07:47:53;;;;;;;13.15;8.45;;;-1.40;99.90;;;;;;5033257;28;20022;-92
2023/12/02 07:50:19;;;;;;;11.27;9.35;;;-1.30;99.90;;;;;;5044231;28;20029;-91
2023/12/02 07:52:45;;;;;;;16.40;10.70;;;-1.40;99.90;;;;;;5040873;28;20037;-93
2023/12/02 07:55:10;;;;;;;14.43;9.68;;;-1.40;99.90;;;;;;5030230;28;20022;-94
2023/12/02 07:57:36;;;;;;;12.80;8.43;;;-1.40;99.90;;;;;;5039685;28;20115;-93
2023/12/02 08:00:02;;;;;;;14.27;9.10;;;-1.40;99.90;;;;;;5029692;28;20022;-93
2023/12/02 08:02:28;;;;;;;13.85;8.75;;;-1.30;99.90;;;;;;5052050;28;20088;-93
2023/12/02 08:04:54;;;;;;;14.55;9.77;;;-1.30;99.90;;;;;;5032430;28;20022;-93
2023/12/02 08:07:19;;;;;;;12.82;8.60;;;-1.30;99.90;;;;;;5045191;28;20099;-92
2023/12/02 08:09:45;;;;;;;13.68;8.43;;;-1.30;99.90;;;;;;5033847;28;20065;-94
2023/12/02 08:12:10;;;;;;;11.70;8.00;;;-1.30;99.90;;;;;;5032666;28;20036;-93
2023/12/02 08:14:39;;;;;;;10.85;7.47;;;-1.30;99.90;;;;;;5020119;28;20049;-91
2023/12/02 08:17:05;;;;;;;13.05;8.50;;;-1.20;99.90;;;;;;5043635;28;20037;-93
2023/12/02 08:19:31;;;;;;;13.23;8.38;;;-1.10;99.90;;;;;;5043429;28;20040;-94
2023/12/02 08:21:57;;;;;;;12.45;8.80;;;-1.20;99.90;;;;;;5028027;28;20033;-93
2023/12/02 08:24:22;;;;;;;10.55;7.72;;;-1.20;99.90;;;;;;5009537;28;20330;-95
2023/12/02 08:26:48;;;;;;;10.00;6.75;;;-1.20;99.30;;;;;;5035694;28;20080;-93
2023/12/02 08:29:14;;;;;;;13.52;8.15;;;-1.20;99.90;;;;;;5039936;28;20300;-93
2023/12/02 08:31:39;;;;;;;14.13;10.57;;;-1.20;99.90;;;;;;5028220;28;20116;-93
2023/12/02 08:34:05;;;;;;;14.38;10.70;;;-1.20;99.90;;;;;;5023661;28;20518;-94
2023/12/02 08:36:31;;;;;;;12.05;7.97;;;-1.20;99.90;;;;;;5016489;28;20213;-94
2023/12/02 08:38:56;;;;;;;11.70;6.57;;;-1.20;99.80;;;;;;5032052;28;20037;-92
2023/12/02 08:41:22;;;;;;;11.40;7.50;;;-1.20;98.80;;;;;;5039083;28;20028;-94
2023/12/02 08:43:48;;;;;;;15.20;8.52;;;-1.20;99.20;;;;;;5040802;28;20077;-95
2023/12/02 08:46:17;;;;;;;12.52;8.13;;;-1.20;99.90;;;;;;5039841;28;20021;-93
2023/12/02 08:48:43;;;;;;;13.07;9.50;;;-1.20;99.80;;;;;;5025582;28;20180;-93
2023/12/02 08:51:09;;;;;;;13.77;9.05;;;-1.20;99.90;;;;;;5034462;28;20074;-93
2023/12/02 08:53:35;;;;;;;11.77;7.78;;;-1.20;99.90;;;;;;5036670;28;20029;-92
2023/12/02 08:56:01;;;;;;;10.45;7.18;;;-1.20;99.00;;;;;;5043730;28;20034;-93
2023/12/02 08:58:26;;;;;;;13.63;7.80;;;-1.20;98.80;;;;;;5016877;28;20034;-94
2023/12/02 09:00:56;;;;;;;12.88;9.00;;;-1.20;98.60;;;;;;5043005;28;20578;-94
2023/12/02 09:03:22;;;;;;;11.20;8.75;;;-1.20;99.10;;;;;;5039951;28;20041;-93
2023/12/02 09:05:49;;;;;;;12.90;8.10;;;-1.20;99.90;;;;;;5033445;28;20029;-93
2023/12/02 09:08:15;;;;;;;9.38;5.65;;;-1.20;99.90;;;;;;5047909;28;20036;-94
2023/12/02 09:10:41;;;;;;;10.25;7.30;;;-1.10;99.70;;;;;;5022710;28;20025;-94
2023/12/02 09:13:42;;;;;;;13.15;7.75;;;-1.10;99.30;;;;;;5032029;28;20018;-94
2023/12/02 09:16:11;;;;;;;9.93;6.85;;;-1.10;97.90;;;;;;5029429;28;20033;-94
2023/12/02 09:18:38;;;;;;;8.75;7.22;;;-1.20;96.70;;;;;;5029993;28;20056;-93
2023/12/02 09:21:15;;;;;;;10.38;7.10;;;-1.20;97.30;;;;;;5027583;28;20025;-91
2023/12/02 09:23:43;;;;;;;9.98;5.95;;;-1.20;97.80;;;;;;5033053;28;20042;-92
2023/12/02 09:26:42;;;;;;;10.60;6.80;;;-1.10;99.90;;;;;;5018675;28;20447;-92
2023/12/02 09:29:08;;;;;;;10.90;7.10;;;-1.00;98.10;;;;;;5024217;28;20134;-93
2023/12/02 09:31:37;;;;;;;10.25;7.15;;;-1.10;98.40;;;;;;5029019;28;20026;-93
2023/12/02 09:34:03;;;;;;;10.38;6.65;;;-1.10;97.00;;;;;;5050463;28;20018;-91
2023/12/02 09:36:39;;;;;;;9.75;7.55;;;-1.10;98.00;;;;;;5046540;28;20022;-95
2023/12/02 09:39:16;;;;;;;10.38;8.43;;;-1.10;97.10;;;;;;5031761;28;20018;-91
2023/12/02 09:41:49;;;;;;;11.25;8.38;;;-1.10;98.20;;;;;;5036028;28;20084;-91
2023/12/02 09:44:40;;;;;;;10.02;6.82;;;-1.00;99.80;;;;;;5051229;28;20021;-94
2023/12/02 09:47:12;;;;;;;10.93;7.57;;;-1.00;98.70;;;;;;5024702;28;20022;-94
2023/12/02 09:50:02;;;;;;;11.07;7.13;;;-1.00;98.60;;;;;;5044723;28;20026;-92
2023/12/02 09:52:51;;;;;;;9.77;7.45;;;-1.00;98.50;;;;;;5031221;28;20033;-92
2023/12/02 09:55:28;;;;;;;10.93;7.25;;;-1.00;99.80;;;;;;5019297;28;20448;-92
2023/12/02 09:58:06;;;;;;;10.63;6.80;;;-0.90;98.50;;;;;;5038539;28;20037;-93
2023/12/02 10:01:04;;;;;;;7.60;5.65;;;-0.90;95.90;;;;;;5032686;28;20033;-93
2023/12/02 10:03:57;;;;;;;10.23;5.88;;;-1.00;95.90;;;;;;5039961;28;20030;-93
2023/12/02 10:06:28;;;;;;;9.23;8.13;;;-1.00;95.80;;;;;;5019219;28;20049;-94
2023/12/02 10:09:19;;;;;;;8.52;6.22;;;-0.90;98.40;;;;;;5040795;28;20064;-92
2023/12/02 10:12:06;;;;;;;9.65;7.20;;;-0.90;96.30;;;;;;5048174;28;20022;-92
2023/12/02 10:14:36;;;;;;;12.70;8.43;;;-0.90;95.80;;;;;;5045642;28;20032;-91
2023/12/02 10:17:04;;;;;;;9.88;6.68;;;-0.90;97.00;;;;;;5028880;28;20025;-94
2023/12/02 10:19:34;;;;;;;10.27;7.63;;;-0.90;96.00;;;;;;5040486;28;20022;-94
2023/12/02 10:22:02;;;;;;;8.55;6.35;;;-1.00;95.50;;;;;;5020317;28;20022;-94
2023/12/02 10:24:53;;;;;;;11.55;6.70;;;-1.10;94.20;;;;;;5030702;28;20018;-94
2023/12/02 10:27:19;;;;;;;11.55;8.20;;;-1.10;95.40;;;;;;5016149;28;20044;-93
2023/12/02 10:30:10;;;;;;;9.80;7.43;;;-1.10;94.30;;;;;;5048376;28;20025;-91
2023/12/02 10:33:14;;;;;;;9.52;7.05;;;-1.10;94.40;;;;;;5033271;28;20014;-93
2023/12/02 10:35:43;;;;;;;10.20;7.57;;;-1.00;94.60;;;;;;5016471;28;20052;-92
2023/12/02 10:38:32;;;;;;;12.52;11.18;;;-1.00;95.00;;;;;;5050715;28;20025;-93
2023/12/02 10:41:01;;;;;;;16.00;8.13;;;-1.00;93.90;;;;;;5032831;28;20033;-93
2023/12/02 10:43:44;;;;;;;10.93;6.18;;;-1.00;95.50;;;;;;5038099;28;20033;-92
2023/12/02 10:46:11;;;;;;;8.93;6.60;;;-1.00;95.80;;;;;;5040839;28;20013;-92
2023/12/02 10:48:39;;;;;;;12.10;6.90;;;-0.90;94.60;;;;;;5035507;28;20022;-91
2023/12/02 10:51:07;;;;;;;11.00;7.00;;;-1.00;92.80;;;;;;5033986;28;20026;-94
2023/12/02 10:53:36;;;;;;;8.07;5.93;;;-1.00;91.00;;;;;;5035088;28;20014;-91
2023/12/02 10:56:10;;;;;;;8.98;6.25;;;-1.00;92.60;;;;;;5017809;28;20090;-93
2023/12/02 10:58:39;;;;;;;8.73;7.50;;;-0.90;92.20;;;;;;5037308;28;20018;-89
2023/12/02 11:01:06;;;;;;;;;;;-0.90;92.70;;;;;;5020682;28;20040;-92
2023/12/02 11:03:38;;;;;;;8.35;5.57;;;-0.90;91.40;;;;;;5023767;28;19928;-93
2023/12/02 11:06:07;;;;;;;9.13;6.18;;;-0.90;90.50;;;;;;5036285;28;20014;-93
2023/12/02 11:08:45;;;;;;;8.00;5.22;;;-1.00;91.70;;;;;;5020526;28;20092;-92
2023/12/02 11:11:18;;;;;;;8.27;6.10;;;-1.00;90.70;;;;;;5021053;28;20562;-95
2023/12/02 11:13:47;;;;;;;8.02;6.00;;;-1.00;91.30;;;;;;5041198;28;20414;-91
2023/12/02 11:16:21;;;;;;;6.82;5.82;;;-0.90;92.10;;;;;;5027556;28;20021;-96
2023/12/02 11:19:06;;;;;;;7.85;6.07;;;-0.90;92.20;;;;;;5026463;28;20032;-92
2023/12/02 11:21:41;;;;;;;7.82;7.05;;;-0.80;91.60;;;;;;5038297;28;20026;-92
2023/12/02 11:24:10;;;;;;;;;;;-0.80;90.70;;;;;;5031735;28;20006;-93
2023/12/02 11:27:04;;;;;;;7.97;6.18;;;-0.80;90.20;;;;;;5051306;28;19928;-94
2023/12/02 11:30:02;;;;;;;6.15;4.75;;;-0.80;88.90;;;;;;5047097;28;20022;-92
2023/12/02 11:33:01;;;;;;;6.68;5.03;;;-0.90;88.70;;;;;;5024320;28;20024;-95
2023/12/02 11:36:03;;;;;;;6.38;4.82;;;-0.90;87.40;;;;;;5042241;28;20033;-93
2023/12/02 11:38:32;;;;;;;7.55;4.80;;;-0.90;88.30;;;;;;5042942;28;20042;-94
2023/12/02 11:41:32;;;;;;;5.00;4.30;;;-1.00;85.80;;;;;;5032182;28;20034;-94
2023/12/02 11:44:35;;;;;;;6.13;5.00;;;-0.90;86.30;;;;;;5036677;28;20025;-93
2023/12/02 11:47:28;;;;;;;6.38;4.43;;;-0.90;87.50;;;;;;5054827;28;20033;-93
2023/12/02 11:50:21;;;;;;;7.95;5.97;;;-0.90;87.00;;;;;;5029527;28;20022;-93
2023/12/02 11:53:05;;;;;;;7.97;4.55;;;-0.80;88.00;;;;;;5036063;28;20014;-94
2023/12/02 11:55:53;;;;;;;5.93;5.25;;;-0.80;86.40;;;;;;5043083;28;20033;-94
2023/12/02 11:58:27;;;;;;;7.63;6.72;;;-0.80;86.50;;;;;;5047182;28;20018;-94
2023/12/02 12:00:58;;;;;;;7.13;4.80;;;-0.80;87.20;;;;;;5045765;28;20040;-93
2023/12/02 12:04:05;;;;;;;7.10;4.72;;;-0.80;88.00;;;;;;5045272;28;20018;-95
2023/12/02 12:06:30;;;;;;;;;;;-0.80;87.10;;;;;;5023146;28;20030;-93
2023/12/02 12:09:22;;;;;;;8.43;5.40;;;-0.80;85.60;;;;;;5040735;28;19904;-94
2023/12/02 12:11:51;;;;;;;6.28;3.90;;;-0.80;86.30;;;;;;5030388;28;20037;-94
2023/12/02 12:14:18;;;;;;;6.72;5.18;;;-0.80;85.70;;;;;;5042392;28;20033;-91
2023/12/02 12:16:44;;;;;;;8.50;7.30;;;-0.90;85.40;;;;;;5045226;28;20036;-92
2023/12/02 12:19:10;;;;;;;8.75;6.35;;;-0.90;86.50;;;;;;5039670;28;20021;-94
2023/12/02 12:21:35;;;;;;;7.22;6.47;;;-0.90;87.20;;;;;;5038633;28;20036;-93
2023/12/02 12:24:01;;;;;;;6.50;4.30;;;-0.90;87.50;;;;;;5040306;28;20021;-92
2023/12/02 12:26:27;;;;;;;5.63;4.93;;;-0.90;85.20;;;;;;5045574;28;20025;-94
2023/12/02 12:28:53;;;;;;;6.15;5.57;;;-1.00;86.50;;;;;;5037700;28;20025;-93
2023/12/02 12:31:19;;;;;;;5.60;4.95;;;-0.90;86.70;;;;;;5026379;28;20037;-92
2023/12/02 12:33:49;;;;;;;5.43;4.28;;;-0.90;86.10;;;;;;5043789;28;20038;-94
2023/12/02 12:36:25;;;;;;;7.13;6.07;;;-0.90;86.60;;;;;;5048598;28;20108;-92
2023/12/02 12:38:53;;;;;;;5.72;5.05;;;-0.90;86.40;;;;;;5044683;28;20108;-91
2023/12/02 12:41:21;;;;;;;6.88;6.10;;;-1.00;86.00;;;;;;5036537;28;20107;-92
2023/12/02 12:43:47;;;;;;;7.65;5.15;;;-0.90;87.00;;;;;;5029856;28;20024;-94
2023/12/02 12:46:15;;;;;;;5.30;4.22;;;-0.90;86.10;;;;;;5042641;28;20021;-94